Terminal Aerodrome Forecast
Issued by NWS Amarillo, TX

Home | Current Version | Previous Version | Text Only | Print | Product List | Glossary On
Versions: 1 2 3 4 5 6 7 8 9 10 11 12 13 14 15 16 17 18 19 20 21 22 23 24 25 26 27
000
FTUS44 KAMA 231600 AAB
TAFDHT
TAF AMD
KDHT 231624Z 2316/2412 12014KT P6SM BKN005 OVC015
     FM232100 17018G28KT P6SM SCT050 BKN200
     FM240100 18014KT P6SM SCT200=

USA.gov is the U.S. government's official web portal to all federal, state and local government web resources and services.